createdAt,value
2023-03-24T00:00:01.851Z,13.99
2023-03-24T00:01:05.328Z,14.11
2023-03-24T00:02:08.144Z,14.26
2023-03-24T00:03:10.828Z,14.07
2023-03-24T00:04:14.296Z,13.97
2023-03-24T00:05:18.754Z,13.54
2023-03-24T00:06:22.636Z,13.56
2023-03-24T00:07:26.208Z,13.69
2023-03-24T00:08:30.554Z,13.88
2023-03-24T00:09:32.389Z,14.04
2023-03-24T00:10:36.984Z,14.04
2023-03-24T00:11:38.659Z,14.18
2023-03-24T00:12:42.615Z,13.97
2023-03-24T00:13:44.396Z,14.09
2023-03-24T00:14:47.432Z,14.18
2023-03-24T00:15:49.015Z,14.05
2023-03-24T00:16:52.895Z,14.10
2023-03-24T00:17:56.140Z,14.27
2023-03-24T00:18:58.711Z,14.18
2023-03-24T00:20:00.284Z,14.23
2023-03-24T00:21:03.873Z,14.24
2023-03-24T00:22:05.531Z,14.22
2023-03-24T00:23:09.313Z,14.18
2023-03-24T00:24:12.714Z,14.25
2023-03-24T00:25:16.200Z,14.42
2023-03-24T00:26:17.815Z,14.38
2023-03-24T00:27:21.133Z,14.25
2023-03-24T00:28:22.709Z,14.38
2023-03-24T00:29:26.157Z,14.32
2023-03-24T00:30:27.737Z,14.20
2023-03-24T00:31:30.749Z,14.35
2023-03-24T00:32:32.354Z,14.44
2023-03-24T00:33:38.021Z,14.47
2023-03-24T00:34:43.313Z,14.50
2023-03-24T00:35:45.871Z,14.53
2023-03-24T00:36:48.736Z,14.40
2023-03-24T00:37:52.169Z,14.53
2023-03-24T00:38:56.253Z,14.47
2023-03-24T00:39:59.618Z,14.42
2023-03-24T00:41:01.943Z,14.52
2023-03-24T00:42:04.577Z,14.57
2023-03-24T00:43:06.124Z,14.60
2023-03-24T00:44:18.069Z,14.64
2023-03-24T00:45:23.458Z,14.55
2023-03-24T00:46:39.298Z,14.37
2023-03-24T00:47:41.446Z,14.23
2023-03-24T00:48:44.292Z,14.06
2023-03-24T00:49:45.854Z,14.23
2023-03-24T00:50:49.744Z,14.33
2023-03-24T00:51:51.776Z,14.40
2023-03-24T00:52:54.682Z,14.16
2023-03-24T00:53:58.011Z,14.21
2023-03-24T00:55:02.768Z,13.82
2023-03-24T00:56:09.096Z,13.77
2023-03-24T00:57:12.911Z,13.90
2023-03-24T00:58:18.023Z,14.07
2023-03-24T00:59:21.416Z,14.24
2023-03-24T01:00:26.194Z,14.25
2023-03-24T01:01:33.069Z,14.07
2023-03-24T01:02:35.097Z,14.03
2023-03-24T01:03:43.222Z,13.90
2023-03-24T01:04:47.342Z,14.06
2023-03-24T01:05:49.840Z,13.82
2023-03-24T01:06:52.687Z,13.91
2023-03-24T01:07:57.436Z,14.10
2023-03-24T01:09:02.787Z,14.14
2023-03-24T01:10:05.880Z,14.16
2023-03-24T01:11:07.550Z,14.25
2023-03-24T01:12:10.370Z,14.21
2023-03-24T01:13:12.692Z,14.14
2023-03-24T01:14:16.153Z,13.92
2023-03-24T01:15:20.327Z,13.85
2023-03-24T01:16:25.795Z,13.92
2023-03-24T01:17:27.601Z,13.99
2023-03-24T01:18:30.367Z,14.19
2023-03-24T01:19:33.066Z,14.27
2023-03-24T01:20:40.628Z,14.20
2023-03-24T01:21:42.483Z,14.15
2023-03-24T01:22:46.319Z,14.28
2023-03-24T01:23:48.126Z,14.31
2023-03-24T01:24:53.112Z,14.44
2023-03-24T01:25:54.826Z,14.23
2023-03-24T01:26:57.416Z,14.38
2023-03-24T01:27:58.982Z,14.46
2023-03-24T01:29:01.604Z,14.57
2023-03-24T01:30:06.187Z,14.60
2023-03-24T01:31:11.124Z,14.65
2023-03-24T01:32:13.790Z,14.75
2023-03-24T01:33:16.686Z,14.60
2023-03-24T01:34:18.314Z,14.57
2023-03-24T01:35:21.306Z,14.39
2023-03-24T01:36:23.284Z,14.23
2023-03-24T01:37:26.158Z,14.25
2023-03-24T01:38:27.736Z,14.25
2023-03-24T01:39:30.910Z,14.30
2023-03-24T01:40:35.720Z,13.95
2023-03-24T01:41:42.337Z,13.82
2023-03-24T01:42:44.249Z,13.98
2023-03-24T01:43:47.000Z,13.89
2023-03-24T01:44:50.527Z,13.93
2023-03-24T01:46:01.668Z,14.16
2023-03-24T01:47:07.809Z,14.09
2023-03-24T01:48:14.352Z,14.10
2023-03-24T01:49:18.008Z,13.85
2023-03-24T01:50:19.597Z,13.88
2023-03-24T01:51:26.390Z,13.63
2023-03-24T01:52:31.089Z,13.82
2023-03-24T01:53:35.734Z,13.89
2023-03-24T01:54:42.854Z,14.03
2023-03-24T01:55:48.575Z,13.96
2023-03-24T01:56:55.528Z,13.91
2023-03-24T01:58:01.352Z,13.72
2023-03-24T01:59:08.967Z,13.83
2023-03-24T02:00:13.935Z,13.95
2023-03-24T02:01:17.487Z,14.09
2023-03-24T02:02:22.021Z,14.22
2023-03-24T02:03:30.049Z,14.08
2023-03-24T02:04:34.718Z,14.15
2023-03-24T02:05:46.381Z,14.26
2023-03-24T02:06:48.947Z,14.03
2023-03-24T02:08:03.403Z,14.02
2023-03-24T02:09:04.968Z,13.92
2023-03-24T02:10:10.775Z,13.88
2023-03-24T02:11:14.142Z,14.09
2023-03-24T02:12:18.312Z,14.17
2023-03-24T02:13:19.997Z,14.00
2023-03-24T02:14:22.729Z,14.20
2023-03-24T02:15:28.162Z,14.31
2023-03-24T02:16:47.427Z,14.25
2023-03-24T02:18:02.111Z,13.89
2023-03-24T02:19:39.143Z,13.97
2023-03-24T02:21:07.695Z,14.17
2023-03-24T02:22:48.444Z,14.20
2023-03-24T02:24:09.291Z,14.24
2023-03-24T02:25:31.782Z,14.26
2023-03-24T02:27:00.280Z,14.04
2023-03-24T02:28:18.309Z,13.92
2023-03-24T02:30:02.863Z,13.93
2023-03-24T02:31:42.022Z,13.86
2023-03-24T02:33:08.394Z,13.83
2023-03-24T02:34:56.734Z,13.90
2023-03-24T02:36:22.946Z,13.71
2023-03-24T02:38:03.956Z,13.97
2023-03-24T02:39:32.993Z,14.16
2023-03-24T02:40:38.641Z,13.98
2023-03-24T02:41:50.247Z,14.05
2023-03-24T02:43:03.850Z,13.99
2023-03-24T02:44:11.396Z,14.04
2023-03-24T02:45:25.198Z,14.09
2023-03-24T02:46:33.177Z,14.14
2023-03-24T02:47:46.146Z,14.09
2023-03-24T02:49:02.838Z,13.93
2023-03-24T02:50:15.202Z,13.96
2023-03-24T02:51:23.087Z,13.94
2023-03-24T02:52:33.620Z,13.96
2023-03-24T02:53:46.609Z,13.85
2023-03-24T02:54:54.777Z,13.59
2023-03-24T02:56:00.878Z,13.74
2023-03-24T02:57:07.076Z,13.69
2023-03-24T02:58:14.754Z,13.52
2023-03-24T02:59:22.605Z,13.56
2023-03-24T03:00:32.447Z,13.57
2023-03-24T03:01:41.802Z,13.44
2023-03-24T03:02:49.989Z,13.38
2023-03-24T03:03:56.916Z,13.27
2023-03-24T03:05:06.009Z,13.25
2023-03-24T03:06:14.927Z,13.37
2023-03-24T03:07:25.290Z,13.58
2023-03-24T03:08:32.479Z,13.47
2023-03-24T03:09:35.241Z,13.28
2023-03-24T03:10:42.610Z,13.16
2023-03-24T03:11:49.248Z,13.03
2023-03-24T03:12:56.205Z,12.94
2023-03-24T03:14:02.365Z,12.81
2023-03-24T03:15:10.184Z,13.08
2023-03-24T03:16:18.083Z,13.42
2023-03-24T03:17:23.966Z,13.40
2023-03-24T03:18:31.262Z,13.54
2023-03-24T03:19:39.472Z,13.62
2023-03-24T03:20:50.571Z,13.61
2023-03-24T03:21:54.969Z,13.41
2023-03-24T03:23:00.851Z,13.63
2023-03-24T03:24:11.116Z,13.41
2023-03-24T03:25:16.008Z,13.29
2023-03-24T03:26:24.059Z,13.30
2023-03-24T03:27:31.315Z,13.37
2023-03-24T03:28:36.596Z,13.38
2023-03-24T03:29:41.289Z,13.48
2023-03-24T03:30:49.678Z,13.55
2023-03-24T03:31:59.648Z,13.31
2023-03-24T03:33:06.568Z,13.19
2023-03-24T03:34:14.868Z,13.18
2023-03-24T03:35:23.598Z,13.30
2023-03-24T03:36:30.450Z,13.38
2023-03-24T03:37:37.660Z,13.30
2023-03-24T03:38:47.842Z,13.34
2023-03-24T03:39:56.240Z,13.49
2023-03-24T03:41:00.251Z,13.42
2023-03-24T03:42:05.137Z,13.25
2023-03-24T03:43:07.271Z,13.11
2023-03-24T03:44:10.366Z,13.08
2023-03-24T03:45:12.409Z,13.23
2023-03-24T03:46:16.574Z,13.22
2023-03-24T03:47:19.042Z,13.16
2023-03-24T03:48:21.941Z,13.13
2023-03-24T03:49:25.637Z,13.16
2023-03-24T03:50:28.358Z,13.22
2023-03-24T03:51:30.004Z,13.37
2023-03-24T03:52:32.749Z,13.36
2023-03-24T03:53:41.628Z,13.45
2023-03-24T03:54:44.879Z,13.44
2023-03-24T03:55:47.268Z,13.42
2023-03-24T03:56:50.940Z,13.49
2023-03-24T03:57:54.713Z,13.35
2023-03-24T03:58:58.263Z,13.33
2023-03-24T04:00:10.766Z,13.26
2023-03-24T04:01:16.871Z,13.43
2023-03-24T04:02:35.559Z,13.60
2023-03-24T04:04:02.621Z,13.42
2023-03-24T04:05:16.996Z,13.21
2023-03-24T04:06:31.967Z,13.39
2023-03-24T04:07:42.197Z,13.45
2023-03-24T04:08:49.456Z,13.62
2023-03-24T04:10:07.621Z,13.74
2023-03-24T04:11:50.029Z,13.83
2023-03-24T04:13:17.106Z,13.95
2023-03-24T04:14:47.464Z,13.65
2023-03-24T04:15:55.733Z,13.57
2023-03-24T04:17:10.942Z,13.60
2023-03-24T04:18:41.116Z,13.33
2023-03-24T04:19:56.875Z,13.45
2023-03-24T04:21:13.019Z,13.62
2023-03-24T04:22:27.515Z,13.87
2023-03-24T04:23:40.964Z,14.04
2023-03-24T04:24:50.996Z,14.09
2023-03-24T04:26:01.604Z,14.19
2023-03-24T04:27:12.026Z,14.30
2023-03-24T04:28:26.491Z,14.38
2023-03-24T04:29:42.419Z,14.45
2023-03-24T04:30:50.375Z,14.24
2023-03-24T04:31:59.126Z,13.57
2023-03-24T04:33:05.516Z,13.49
2023-03-24T04:34:16.337Z,13.54
2023-03-24T04:35:26.348Z,13.69
2023-03-24T04:36:42.506Z,13.74
2023-03-24T04:37:45.883Z,13.58
2023-03-24T04:38:53.407Z,13.65
2023-03-24T04:39:58.931Z,13.79
2023-03-24T04:41:01.994Z,13.43
2023-03-24T04:42:08.013Z,13.28
2023-03-24T04:43:16.784Z,12.96
2023-03-24T04:44:21.832Z,13.04
2023-03-24T04:45:25.706Z,13.03
2023-03-24T04:46:27.326Z,13.01
2023-03-24T04:47:53.869Z,13.04
2023-03-24T04:48:55.624Z,13.11
2023-03-24T04:50:02.149Z,12.96
2023-03-24T04:51:05.969Z,13.04
2023-03-24T04:52:08.122Z,13.22
2023-03-24T04:53:11.288Z,13.10
2023-03-24T04:54:13.967Z,13.10
2023-03-24T04:55:42.259Z,13.17
2023-03-24T04:56:47.685Z,13.25
2023-03-24T04:57:49.737Z,13.28
2023-03-24T04:58:52.278Z,13.17
2023-03-24T04:59:56.071Z,12.83
2023-03-24T05:00:58.796Z,12.82
2023-03-24T05:02:01.886Z,13.00
2023-03-24T05:03:03.530Z,13.02
2023-03-24T05:04:06.189Z,13.14
2023-03-24T05:05:08.603Z,13.15
2023-03-24T05:06:11.395Z,13.05
2023-03-24T05:07:15.278Z,13.19
2023-03-24T05:08:19.495Z,12.95
2023-03-24T05:09:24.807Z,13.02
2023-03-24T05:10:26.475Z,13.17
2023-03-24T05:11:29.335Z,13.09
2023-03-24T05:12:31.018Z,13.04
2023-03-24T05:13:33.509Z,12.97
2023-03-24T05:14:35.396Z,13.17
2023-03-24T05:15:39.492Z,13.11
2023-03-24T05:16:41.208Z,13.03
2023-03-24T05:17:43.846Z,13.06
2023-03-24T05:18:45.637Z,13.10
2023-03-24T05:19:48.105Z,13.06
2023-03-24T05:20:50.031Z,12.95
2023-03-24T05:21:53.665Z,12.92
2023-03-24T05:22:55.295Z,12.90
2023-03-24T05:23:57.811Z,12.95
2023-03-24T05:24:59.353Z,13.09
2023-03-24T05:26:02.237Z,13.01
2023-03-24T05:27:03.855Z,12.93
2023-03-24T05:28:06.712Z,13.06
2023-03-24T05:29:08.262Z,12.97
2023-03-24T05:30:11.811Z,12.85
2023-03-24T05:31:14.696Z,12.89
2023-03-24T05:32:17.281Z,12.97
2023-03-24T05:33:18.905Z,12.92
2023-03-24T05:34:22.239Z,12.88
2023-03-24T05:35:24.734Z,12.88
2023-03-24T05:36:27.542Z,12.91
2023-03-24T05:37:29.068Z,12.84
2023-03-24T05:38:31.857Z,12.99
2023-03-24T05:39:33.535Z,13.00
2023-03-24T05:40:37.520Z,13.00
2023-03-24T05:41:40.042Z,13.01
2023-03-24T05:42:41.938Z,13.09
2023-03-24T05:43:44.529Z,13.14
2023-03-24T05:44:46.505Z,13.02
2023-03-24T05:45:49.281Z,12.95
2023-03-24T05:46:52.390Z,13.12
2023-03-24T05:47:54.983Z,13.05
2023-03-24T05:48:56.590Z,12.96
2023-03-24T05:49:59.310Z,12.93
2023-03-24T05:51:00.907Z,12.97
2023-03-24T05:52:03.435Z,13.11
2023-03-24T05:53:04.945Z,13.19
2023-03-24T05:54:08.532Z,13.33
2023-03-24T05:55:10.964Z,13.31
2023-03-24T05:56:13.898Z,13.37
2023-03-24T05:57:16.311Z,13.28
2023-03-24T05:58:22.099Z,13.33
2023-03-24T05:59:23.709Z,13.26
2023-03-24T06:00:36.781Z,13.37
2023-03-24T06:01:38.546Z,13.32
2023-03-24T06:02:42.792Z,13.42
2023-03-24T06:03:44.774Z,13.58
2023-03-24T06:04:49.209Z,13.57
2023-03-24T06:05:51.300Z,13.63
2023-03-24T06:06:55.861Z,13.62
2023-03-24T06:07:58.774Z,13.61
2023-03-24T06:09:02.561Z,13.56
2023-03-24T06:10:05.039Z,13.57
2023-03-24T06:11:07.934Z,13.45
2023-03-24T06:12:09.922Z,13.49
2023-03-24T06:13:12.713Z,13.51
2023-03-24T06:14:14.963Z,13.51
2023-03-24T06:15:17.930Z,13.54
2023-03-24T06:16:23.909Z,13.50
2023-03-24T06:17:28.553Z,13.59
2023-03-24T06:18:32.058Z,13.78
2023-03-24T06:19:34.772Z,13.70
2023-03-24T06:20:36.354Z,13.65
2023-03-24T06:21:38.963Z,13.69
2023-03-24T06:22:40.579Z,13.65
2023-03-24T06:23:43.107Z,13.81
2023-03-24T06:24:45.261Z,13.81
2023-03-24T06:25:50.757Z,13.84
2023-03-24T06:26:52.272Z,13.78
2023-03-24T06:27:54.749Z,13.88
2023-03-24T06:28:56.806Z,13.82
2023-03-24T06:29:59.338Z,13.86
2023-03-24T06:31:00.848Z,13.83
2023-03-24T06:32:03.555Z,13.89
2023-03-24T06:33:08.135Z,13.96
2023-03-24T06:34:12.680Z,13.91
2023-03-24T06:35:14.878Z,13.96
2023-03-24T06:36:17.534Z,13.97
2023-03-24T06:37:21.733Z,14.04
2023-03-24T06:38:24.514Z,14.29
2023-03-24T06:39:26.381Z,14.46
2023-03-24T06:40:29.074Z,14.41
2023-03-24T06:41:31.413Z,14.30
2023-03-24T06:42:34.004Z,14.32
2023-03-24T06:43:35.944Z,14.28
2023-03-24T06:44:38.662Z,14.15
2023-03-24T06:45:40.464Z,14.06
2023-03-24T06:46:45.939Z,14.06
2023-03-24T06:47:47.637Z,14.17
2023-03-24T06:48:50.205Z,14.14
2023-03-24T06:49:53.475Z,14.28
2023-03-24T06:50:57.126Z,14.25
2023-03-24T06:51:58.751Z,14.22
2023-03-24T06:53:01.242Z,14.23
2023-03-24T06:54:03.321Z,14.30
2023-03-24T06:55:08.278Z,14.40
2023-03-24T06:56:10.039Z,14.62
2023-03-24T06:57:12.881Z,14.85
2023-03-24T06:58:15.018Z,14.97
2023-03-24T06:59:17.881Z,14.99
2023-03-24T07:00:19.996Z,14.88
2023-03-24T07:01:22.539Z,14.89
2023-03-24T07:02:24.149Z,15.13
2023-03-24T07:03:26.740Z,15.06
2023-03-24T07:04:36.467Z,15.05
2023-03-24T07:05:41.407Z,15.16
2023-03-24T07:07:00.803Z,15.12
2023-03-24T07:08:33.819Z,14.97
2023-03-24T07:09:29.357Z,14.85
2023-03-24T07:10:31.246Z,14.78
2023-03-24T07:11:33.815Z,14.85
2023-03-24T07:12:36.496Z,14.83
2023-03-24T07:13:38.516Z,14.88
2023-03-24T07:14:41.234Z,14.88
2023-03-24T07:15:42.757Z,15.08
2023-03-24T07:16:45.367Z,15.06
2023-03-24T07:17:51.061Z,15.15
2023-03-24T07:18:55.955Z,15.12
2023-03-24T07:19:57.452Z,15.00
2023-03-24T07:21:01.528Z,15.06
2023-03-24T07:22:03.101Z,14.84
2023-03-24T07:23:05.835Z,14.89
2023-03-24T07:24:07.973Z,14.92
2023-03-24T07:25:21.213Z,15.10
2023-03-24T07:26:23.727Z,15.05
2023-03-24T07:27:26.278Z,14.98
2023-03-24T07:28:28.859Z,15.02
2023-03-24T07:29:31.172Z,15.16
2023-03-24T07:30:40.687Z,15.10
2023-03-24T07:31:44.997Z,15.01
2023-03-24T07:32:46.547Z,14.91
2023-03-24T07:33:49.265Z,14.93
2023-03-24T07:34:50.970Z,14.96
2023-03-24T07:35:56.080Z,14.89
2023-03-24T07:37:00.708Z,14.90
2023-03-24T07:38:08.210Z,15.12
2023-03-24T07:39:10.832Z,15.08
2023-03-24T07:40:13.839Z,14.91
2023-03-24T07:41:16.322Z,14.80
2023-03-24T07:42:17.985Z,14.89
2023-03-24T07:43:21.891Z,15.04
2023-03-24T07:44:24.370Z,15.03
2023-03-24T07:45:26.718Z,15.01
2023-03-24T07:46:29.294Z,14.98
2023-03-24T07:47:31.651Z,15.13
2023-03-24T07:48:34.644Z,15.03
2023-03-24T07:49:37.151Z,15.09
2023-03-24T07:50:38.845Z,14.89
2023-03-24T07:51:43.032Z,15.00
2023-03-24T07:52:49.687Z,14.83
2023-03-24T07:53:52.519Z,14.82
2023-03-24T07:54:55.074Z,15.05
2023-03-24T07:55:56.602Z,15.21
2023-03-24T07:56:59.149Z,15.28
2023-03-24T07:58:00.734Z,15.17
2023-03-24T07:59:03.408Z,15.08
2023-03-24T08:00:14.737Z,14.86
2023-03-24T08:01:17.480Z,15.12
2023-03-24T08:02:20.575Z,15.18
2023-03-24T08:03:25.586Z,15.21
2023-03-24T08:04:28.886Z,15.22
2023-03-24T08:05:30.876Z,15.27
2023-03-24T08:06:33.392Z,15.23
2023-03-24T08:07:35.160Z,15.29
2023-03-24T08:08:39.531Z,15.42
2023-03-24T08:09:41.284Z,15.41
2023-03-24T08:10:45.910Z,15.49
2023-03-24T08:11:48.548Z,15.34
2023-03-24T08:12:51.274Z,15.33
2023-03-24T08:13:54.179Z,15.28
2023-03-24T08:14:55.783Z,15.48
2023-03-24T08:15:58.337Z,15.54
2023-03-24T08:16:59.899Z,15.41
2023-03-24T08:18:04.828Z,15.49
2023-03-24T08:19:06.505Z,15.53
2023-03-24T08:20:15.201Z,15.62
2023-03-24T08:21:18.335Z,15.51
2023-03-24T08:22:20.033Z,15.51
2023-03-24T08:23:22.530Z,15.62
2023-03-24T08:24:25.514Z,15.59
2023-03-24T08:25:28.471Z,15.42
2023-03-24T08:26:31.066Z,15.68
2023-03-24T08:27:33.969Z,15.66
2023-03-24T08:28:36.999Z,15.86
2023-03-24T08:29:39.374Z,16.05
2023-03-24T08:30:43.532Z,16.07
2023-03-24T08:31:45.440Z,16.07
2023-03-24T08:32:51.545Z,15.96
2023-03-24T08:33:55.030Z,16.02
2023-03-24T08:34:57.857Z,16.07
2023-03-24T08:36:01.088Z,16.03
2023-03-24T08:37:02.866Z,16.06
2023-03-24T08:38:07.218Z,16.31
2023-03-24T08:39:09.760Z,16.32
2023-03-24T08:40:18.446Z,16.30
2023-03-24T08:41:21.908Z,16.44
2023-03-24T08:42:23.784Z,16.55
2023-03-24T08:43:27.492Z,16.60
2023-03-24T08:44:32.792Z,16.61
2023-03-24T08:45:36.680Z,16.39
2023-03-24T08:46:48.989Z,16.11
2023-03-24T08:47:52.290Z,15.98
2023-03-24T08:48:54.866Z,16.12
2023-03-24T08:49:59.183Z,16.22
2023-03-24T08:51:01.748Z,16.23
2023-03-24T08:52:03.710Z,16.18
2023-03-24T08:53:06.641Z,16.43
2023-03-24T08:54:09.454Z,16.56
2023-03-24T08:55:13.419Z,16.72
2023-03-24T08:56:15.892Z,16.52
2023-03-24T08:57:17.811Z,16.54
2023-03-24T08:58:21.852Z,16.66
2023-03-24T08:59:23.693Z,16.71
2023-03-24T09:00:26.245Z,16.78
2023-03-24T09:01:28.825Z,16.68
2023-03-24T09:02:30.403Z,16.69
2023-03-24T09:03:32.900Z,16.47
2023-03-24T09:04:34.507Z,16.53
2023-03-24T09:05:54.552Z,16.47
2023-03-24T09:07:01.688Z,16.53
2023-03-24T09:08:05.700Z,16.53
2023-03-24T09:09:08.518Z,16.64
2023-03-24T09:10:13.756Z,16.67
2023-03-24T09:11:17.146Z,16.66
2023-03-24T09:12:19.642Z,16.63
2023-03-24T09:13:21.413Z,16.92
2023-03-24T09:14:24.228Z,16.89
2023-03-24T09:15:26.841Z,16.94
2023-03-24T09:16:29.534Z,16.46
2023-03-24T09:17:31.113Z,16.78
2023-03-24T09:18:34.495Z,17.19
2023-03-24T09:19:36.139Z,17.25
2023-03-24T09:20:38.690Z,17.17
2023-03-24T09:21:41.792Z,17.32
2023-03-24T09:22:45.961Z,17.35
2023-03-24T09:23:47.605Z,17.30
2023-03-24T09:24:50.585Z,17.31
2023-03-24T09:25:54.626Z,17.28
2023-03-24T09:26:56.185Z,17.28
2023-03-24T09:27:58.642Z,16.94
2023-03-24T09:29:01.290Z,16.91
2023-03-24T09:30:03.544Z,16.82
2023-03-24T09:31:07.516Z,17.02
2023-03-24T09:32:10.489Z,17.05
2023-03-24T09:33:13.585Z,17.42
2023-03-24T09:34:15.675Z,17.45
2023-03-24T09:35:18.721Z,17.28
2023-03-24T09:36:21.706Z,17.38
2023-03-24T09:37:23.288Z,17.53
2023-03-24T09:38:26.512Z,17.47
2023-03-24T09:39:28.371Z,17.51
2023-03-24T09:40:33.956Z,17.66
2023-03-24T09:41:37.955Z,17.56
2023-03-24T09:42:42.546Z,17.23
2023-03-24T09:43:50.043Z,17.44
2023-03-24T09:44:56.612Z,17.17
2023-03-24T09:46:03.121Z,17.20
2023-03-24T09:47:14.535Z,17.10
2023-03-24T09:48:21.428Z,17.32
2023-03-24T09:49:28.036Z,17.20
2023-03-24T09:50:36.121Z,17.13
2023-03-24T09:51:43.635Z,16.94
2023-03-24T09:52:49.114Z,17.18
2023-03-24T09:53:59.195Z,17.35
2023-03-24T09:55:02.578Z,17.23
2023-03-24T09:56:12.454Z,17.35
2023-03-24T09:57:22.925Z,17.40
2023-03-24T09:58:29.599Z,17.31
2023-03-24T09:59:36.312Z,17.08
2023-03-24T10:00:38.122Z,17.20
2023-03-24T10:01:40.742Z,17.33
2023-03-24T10:02:42.464Z,17.09
2023-03-24T10:03:46.621Z,17.02
2023-03-24T10:04:49.560Z,17.31
2023-03-24T10:05:55.399Z,17.41
2023-03-24T10:07:01.769Z,17.63
2023-03-24T10:08:14.618Z,17.48
2023-03-24T10:09:24.036Z,17.37
2023-03-24T10:10:34.500Z,17.41
2023-03-24T10:11:43.212Z,17.50
2023-03-24T10:12:49.166Z,17.45
2023-03-24T10:14:11.767Z,17.62
2023-03-24T10:16:37.517Z,18.02
2023-03-24T10:17:48.662Z,18.09
2023-03-24T10:19:00.586Z,18.31
2023-03-24T10:20:12.444Z,18.31
2023-03-24T10:21:19.441Z,18.60
2023-03-24T10:22:26.752Z,18.73
2023-03-24T10:23:36.609Z,18.96
2023-03-24T10:24:48.174Z,18.91
2023-03-24T10:25:54.226Z,18.81
2023-03-24T10:27:04.813Z,18.89
2023-03-24T10:28:19.723Z,18.84
2023-03-24T10:29:25.019Z,18.76
2023-03-24T10:30:29.967Z,18.61
2023-03-24T10:31:34.133Z,18.58
2023-03-24T10:32:38.231Z,18.08
2023-03-24T10:33:42.857Z,18.04
2023-03-24T10:34:49.417Z,18.21
2023-03-24T10:35:57.344Z,18.68
2023-03-24T10:37:02.235Z,19.21
2023-03-24T10:38:12.332Z,19.70
2023-03-24T10:39:22.510Z,20.32
2023-03-24T10:40:33.257Z,20.24
2023-03-24T10:41:37.540Z,19.96
2023-03-24T10:42:39.409Z,19.84
2023-03-24T10:43:44.546Z,19.08
2023-03-24T10:44:49.152Z,19.29
2023-03-24T10:45:54.274Z,19.21
2023-03-24T10:46:59.124Z,19.39
2023-03-24T10:48:03.510Z,19.51
2023-03-24T10:49:10.209Z,18.90
2023-03-24T10:50:14.507Z,18.76
2023-03-24T10:51:19.476Z,18.78
2023-03-24T10:52:24.500Z,18.60
2023-03-24T10:53:27.419Z,18.17
2023-03-24T10:54:31.464Z,18.05
2023-03-24T10:55:39.088Z,18.11
2023-03-24T10:56:43.416Z,18.03
2023-03-24T10:57:55.946Z,17.92
2023-03-24T10:58:59.940Z,17.93
2023-03-24T11:00:14.326Z,17.74
2023-03-24T11:01:27.253Z,17.66
2023-03-24T11:02:32.556Z,17.40
2023-03-24T11:03:36.966Z,17.03
2023-03-24T11:04:41.777Z,16.73
2023-03-24T11:05:44.651Z,16.56
2023-03-24T11:07:04.098Z,16.45
2023-03-24T11:08:27.028Z,16.12
2023-03-24T11:09:28.752Z,16.09
2023-03-24T11:10:31.224Z,15.94
2023-03-24T11:11:32.809Z,15.74
2023-03-24T11:12:37.982Z,15.51
2023-03-24T11:13:39.683Z,15.41
2023-03-24T11:14:46.552Z,15.41
2023-03-24T11:15:58.799Z,15.38
2023-03-24T11:17:11.974Z,15.24
2023-03-24T11:18:17.218Z,15.24
2023-03-24T11:19:22.483Z,15.14
2023-03-24T11:20:30.185Z,15.08
2023-03-24T11:21:36.033Z,15.28
2023-03-24T11:22:40.153Z,15.22
2023-03-24T11:23:44.618Z,15.33
2023-03-24T11:24:52.772Z,15.23
2023-03-24T11:26:04.079Z,15.22
2023-03-24T11:27:06.913Z,15.31
2023-03-24T11:28:15.288Z,15.17
2023-03-24T11:29:21.814Z,15.11
2023-03-24T11:30:27.970Z,15.27
2023-03-24T11:31:35.093Z,15.47
2023-03-24T11:32:36.838Z,15.22
2023-03-24T11:33:46.592Z,15.10
2023-03-24T11:34:52.679Z,14.89
2023-03-24T11:36:05.214Z,14.91
2023-03-24T11:37:13.039Z,14.64
2023-03-24T11:38:17.370Z,14.50
2023-03-24T11:39:22.746Z,14.41
2023-03-24T11:40:27.231Z,14.42
2023-03-24T11:41:28.891Z,14.42
2023-03-24T11:42:31.384Z,14.40
2023-03-24T11:43:33.019Z,14.39
2023-03-24T11:44:47.581Z,14.39
2023-03-24T11:46:00.310Z,14.41
2023-03-24T11:47:09.779Z,14.47
2023-03-24T11:49:53.293Z,14.43
2023-03-24T11:50:57.601Z,14.10
2023-03-24T11:52:00.899Z,14.03
2023-03-24T11:53:09.094Z,14.08
2023-03-24T11:54:14.552Z,14.20
2023-03-24T11:55:21.966Z,14.35
2023-03-24T11:56:27.817Z,14.15
2023-03-24T11:57:45.962Z,13.96
2023-03-24T11:58:54.328Z,14.03
2023-03-24T12:00:04.978Z,13.80
2023-03-24T12:01:17.554Z,13.76
2023-03-24T12:02:25.833Z,13.60
2023-03-24T12:03:53.994Z,13.58
2023-03-24T12:05:10.432Z,13.57
2023-03-24T12:06:24.445Z,13.34
2023-03-24T12:08:07.041Z,13.24
2023-03-24T12:09:21.221Z,13.28
2023-03-24T12:10:34.912Z,13.22
2023-03-24T12:11:52.802Z,13.12
2023-03-24T12:13:05.341Z,13.18
2023-03-24T12:14:09.172Z,13.32
2023-03-24T12:15:28.765Z,13.37
2023-03-24T12:16:44.733Z,13.36
2023-03-24T12:17:55.895Z,13.36
2023-03-24T12:19:18.062Z,13.11
2023-03-24T12:20:25.773Z,13.07
2023-03-24T12:21:44.890Z,13.12
2023-03-24T12:22:58.373Z,13.14
2023-03-24T12:24:09.678Z,13.32
2023-03-24T12:25:29.737Z,13.20
2023-03-24T12:26:33.594Z,13.22
2023-03-24T12:27:47.369Z,13.40
2023-03-24T12:29:10.810Z,13.20
2023-03-24T12:30:22.786Z,13.35
2023-03-24T12:31:56.159Z,13.25
2023-03-24T12:33:14.413Z,13.20
2023-03-24T12:34:35.568Z,13.27
2023-03-24T12:35:56.967Z,13.12
2023-03-24T12:37:07.381Z,13.07
2023-03-24T12:38:22.072Z,13.07
2023-03-24T12:39:28.868Z,13.20
2023-03-24T12:40:53.675Z,13.20
2023-03-24T12:42:08.490Z,13.34
2023-03-24T12:43:22.860Z,13.26
2023-03-24T12:44:38.137Z,12.76
2023-03-24T12:45:49.493Z,12.85
2023-03-24T12:47:03.618Z,12.99
2023-03-24T12:48:23.694Z,12.91
2023-03-24T12:49:43.281Z,12.97
2023-03-24T12:50:57.681Z,13.13
2023-03-24T12:52:15.057Z,13.03
2023-03-24T12:53:41.771Z,13.13
2023-03-24T12:54:52.231Z,13.25
2023-03-24T12:56:00.447Z,12.99
2023-03-24T12:57:07.689Z,12.60
2023-03-24T12:58:15.875Z,12.91
2023-03-24T12:59:24.127Z,13.19
2023-03-24T13:00:33.827Z,13.14
2023-03-24T13:01:40.449Z,12.87
2023-03-24T13:02:48.722Z,12.88
2023-03-24T13:03:59.496Z,13.12
2023-03-24T13:05:07.988Z,12.82
2023-03-24T13:06:22.737Z,13.04
2023-03-24T13:07:28.550Z,13.12
2023-03-24T13:08:41.786Z,13.12
2023-03-24T13:09:49.887Z,13.29
2023-03-24T13:10:55.265Z,13.19
2023-03-24T13:12:00.823Z,12.51
2023-03-24T13:13:09.900Z,12.54
2023-03-24T13:14:16.833Z,12.72
2023-03-24T13:15:24.130Z,12.81
2023-03-24T13:16:31.016Z,13.02
2023-03-24T13:17:40.017Z,12.99
2023-03-24T13:18:48.293Z,12.98
2023-03-24T13:19:52.892Z,12.95
2023-03-24T13:20:59.205Z,12.90
2023-03-24T13:22:05.702Z,12.89
2023-03-24T13:23:25.890Z,12.83
2023-03-24T13:24:28.494Z,12.72
2023-03-24T13:25:36.897Z,12.90
2023-03-24T13:26:41.455Z,12.99
2023-03-24T13:27:47.768Z,12.68
2023-03-24T13:29:01.966Z,12.54
2023-03-24T13:30:12.234Z,12.95
2023-03-24T13:31:17.228Z,13.03
2023-03-24T13:32:29.226Z,12.74
2023-03-24T13:33:36.613Z,12.63
2023-03-24T13:34:45.895Z,12.61
2023-03-24T13:36:08.409Z,12.84
2023-03-24T13:37:14.418Z,12.75
2023-03-24T13:38:22.274Z,12.77
2023-03-24T13:39:27.865Z,12.59
2023-03-24T13:40:32.731Z,12.86
2023-03-24T13:41:39.823Z,12.90
2023-03-24T13:42:46.917Z,13.00
2023-03-24T13:43:51.728Z,13.28
2023-03-24T13:44:53.476Z,13.71
2023-03-24T13:46:01.149Z,14.09
2023-03-24T13:47:08.812Z,14.69
2023-03-24T13:48:32.973Z,14.87
2023-03-24T13:49:35.080Z,14.92
2023-03-24T13:50:42.410Z,15.19
2023-03-24T13:51:46.951Z,16.73
2023-03-24T13:52:49.752Z,17.25
2023-03-24T13:53:55.249Z,16.85
2023-03-24T13:55:00.462Z,16.19
2023-03-24T13:56:06.157Z,15.85
2023-03-24T13:57:17.160Z,15.08
2023-03-24T13:58:21.966Z,14.80
2023-03-24T13:59:29.017Z,14.59
2023-03-24T14:00:31.953Z,14.68
2023-03-24T14:01:36.985Z,14.69
2023-03-24T14:02:50.119Z,14.53
2023-03-24T14:04:23.276Z,14.27
2023-03-24T14:05:56.182Z,14.20
2023-03-24T14:07:00.460Z,13.59
2023-03-24T14:08:16.193Z,13.65
2023-03-24T14:09:21.512Z,13.86
2023-03-24T14:10:57.952Z,13.90
2023-03-24T14:12:20.796Z,14.06
2023-03-24T14:13:39.841Z,14.26
2023-03-24T14:15:17.496Z,14.60
2023-03-24T14:16:42.599Z,14.49
2023-03-24T14:17:47.262Z,14.09
2023-03-24T14:18:49.205Z,14.15
2023-03-24T14:20:13.403Z,14.35
2023-03-24T14:21:29.752Z,13.95
2023-03-24T14:23:05.261Z,14.04
2023-03-24T14:24:17.328Z,14.11